sensor_id;sensor_type;location;lat;lon;timestamp;temperature;humidity
25554;DHT22;13446;50.926;5.332;2022-09-29T00:00:30;9.60;99.90
25554;DHT22;13446;50.926;5.332;2022-09-29T00:02:56;9.50;99.90
25554;DHT22;13446;50.926;5.332;2022-09-29T00:05:21;9.50;99.90
25554;DHT22;13446;50.926;5.332;2022-09-29T00:07:47;9.50;99.90
25554;DHT22;13446;50.926;5.332;2022-09-29T00:10:13;9.50;99.90
25554;DHT22;13446;50.926;5.332;2022-09-29T00:12:38;9.50;99.90
25554;DHT22;13446;50.926;5.332;2022-09-29T00:15:04;9.50;99.90
25554;DHT22;13446;50.926;5.332;2022-09-29T00:17:30;9.50;99.90
25554;DHT22;13446;50.926;5.332;2022-09-29T00:19:55;9.40;99.90
25554;DHT22;13446;50.926;5.332;2022-09-29T00:22:21;9.40;99.90
25554;DHT22;13446;50.926;5.332;2022-09-29T00:24:46;9.40;99.90
25554;DHT22;13446;50.926;5.332;2022-09-29T00:27:14;9.40;99.90
25554;DHT22;13446;50.926;5.332;2022-09-29T00:29:39;9.50;99.90
25554;DHT22;13446;50.926;5.332;2022-09-29T00:32:05;9.50;99.90
25554;DHT22;13446;50.926;5.332;2022-09-29T00:34:31;9.50;99.90
25554;DHT22;13446;50.926;5.332;2022-09-29T00:36:56;9.50;99.90
25554;DHT22;13446;50.926;5.332;2022-09-29T00:39:22;9.50;99.90
25554;DHT22;13446;50.926;5.332;2022-09-29T00:41:47;9.40;99.90
25554;DHT22;13446;50.926;5.332;2022-09-29T00:49:16;9.20;99.90
25554;DHT22;13446;50.926;5.332;2022-09-29T00:51:44;9.20;99.90
25554;DHT22;13446;50.926;5.332;2022-09-29T00:54:11;9.20;99.90
25554;DHT22;13446;50.926;5.332;2022-09-29T00:56:38;9.30;99.90
25554;DHT22;13446;50.926;5.332;2022-09-29T00:59:06;9.30;99.90
25554;DHT22;13446;50.926;5.332;2022-09-29T01:01:32;9.20;99.90
25554;DHT22;13446;50.926;5.332;2022-09-29T01:04:00;9.30;99.90
25554;DHT22;13446;50.926;5.332;2022-09-29T01:06:29;9.10;99.90
25554;DHT22;13446;50.926;5.332;2022-09-29T01:09:00;9.00;99.90
25554;DHT22;13446;50.926;5.332;2022-09-29T01:11:26;9.10;99.90
25554;DHT22;13446;50.926;5.332;2022-09-29T01:13:54;9.00;99.90
25554;DHT22;13446;50.926;5.332;2022-09-29T01:16:21;9.00;99.90
25554;DHT22;13446;50.926;5.332;2022-09-29T01:18:46;9.10;99.90
25554;DHT22;13446;50.926;5.332;2022-09-29T01:24:04;9.00;99.90
25554;DHT22;13446;50.926;5.332;2022-09-29T01:29:00;9.00;99.90
25554;DHT22;13446;50.926;5.332;2022-09-29T01:36:31;9.10;99.90
25554;DHT22;13446;50.926;5.332;2022-09-29T01:39:12;9.10;99.90
25554;DHT22;13446;50.926;5.332;2022-09-29T01:44:11;9.00;99.90
25554;DHT22;13446;50.926;5.332;2022-09-29T01:46:41;9.00;99.90
25554;DHT22;13446;50.926;5.332;2022-09-29T01:49:08;9.00;99.90
25554;DHT22;13446;50.926;5.332;2022-09-29T01:51:36;9.00;99.90
25554;DHT22;13446;50.926;5.332;2022-09-29T01:54:05;8.90;99.90
25554;DHT22;13446;50.926;5.332;2022-09-29T01:56:40;8.90;99.90
25554;DHT22;13446;50.926;5.332;2022-09-29T01:59:09;8.90;99.90
25554;DHT22;13446;50.926;5.332;2022-09-29T02:01:38;8.80;99.90
25554;DHT22;13446;50.926;5.332;2022-09-29T02:04:13;8.90;99.90
25554;DHT22;13446;50.926;5.332;2022-09-29T02:06:54;8.90;99.90
25554;DHT22;13446;50.926;5.332;2022-09-29T02:09:22;8.80;99.90
25554;DHT22;13446;50.926;5.332;2022-09-29T02:11:51;8.70;99.90
25554;DHT22;13446;50.926;5.332;2022-09-29T02:14:18;8.70;99.90
25554;DHT22;13446;50.926;5.332;2022-09-29T02:16:51;8.70;99.90
25554;DHT22;13446;50.926;5.332;2022-09-29T02:19:30;8.70;99.90
25554;DHT22;13446;50.926;5.332;2022-09-29T02:21:57;8.70;99.90
25554;DHT22;13446;50.926;5.332;2022-09-29T02:24:23;8.60;99.90
25554;DHT22;13446;50.926;5.332;2022-09-29T02:26:49;8.80;99.90
25554;DHT22;13446;50.926;5.332;2022-09-29T02:29:15;8.70;99.90
25554;DHT22;13446;50.926;5.332;2022-09-29T02:31:41;8.60;99.90
25554;DHT22;13446;50.926;5.332;2022-09-29T02:34:09;8.50;99.90
25554;DHT22;13446;50.926;5.332;2022-09-29T02:42:04;8.50;99.90
25554;DHT22;13446;50.926;5.332;2022-09-29T03:00:20;8.60;99.90
25554;DHT22;13446;50.926;5.332;2022-09-29T03:02:46;8.60;99.90
25554;DHT22;13446;50.926;5.332;2022-09-29T03:05:16;8.50;99.90
25554;DHT22;13446;50.926;5.332;2022-09-29T03:07:41;8.50;99.90
25554;DHT22;13446;50.926;5.332;2022-09-29T03:10:08;8.40;99.90
25554;DHT22;13446;50.926;5.332;2022-09-29T03:12:35;8.40;99.90
25554;DHT22;13446;50.926;5.332;2022-09-29T03:15:00;8.30;99.90
25554;DHT22;13446;50.926;5.332;2022-09-29T03:17:26;8.30;99.90
25554;DHT22;13446;50.926;5.332;2022-09-29T03:19:52;8.30;99.90
25554;DHT22;13446;50.926;5.332;2022-09-29T03:22:17;8.30;99.90
25554;DHT22;13446;50.926;5.332;2022-09-29T03:24:43;8.30;99.90
25554;DHT22;13446;50.926;5.332;2022-09-29T03:27:09;8.30;99.90
25554;DHT22;13446;50.926;5.332;2022-09-29T03:29:35;8.30;99.90
25554;DHT22;13446;50.926;5.332;2022-09-29T03:32:03;8.30;99.90
25554;DHT22;13446;50.926;5.332;2022-09-29T03:34:30;8.30;99.90
25554;DHT22;13446;50.926;5.332;2022-09-29T03:36:56;8.20;99.90
25554;DHT22;13446;50.926;5.332;2022-09-29T03:39:22;8.20;99.90
25554;DHT22;13446;50.926;5.332;2022-09-29T03:41:48;8.30;99.90
25554;DHT22;13446;50.926;5.332;2022-09-29T03:44:13;8.30;99.90
25554;DHT22;13446;50.926;5.332;2022-09-29T03:46:39;8.30;99.90
25554;DHT22;13446;50.926;5.332;2022-09-29T03:49:04;8.20;99.90
25554;DHT22;13446;50.926;5.332;2022-09-29T03:51:30;8.20;99.90
25554;DHT22;13446;50.926;5.332;2022-09-29T03:53:55;8.10;99.90
25554;DHT22;13446;50.926;5.332;2022-09-29T03:56:21;8.20;99.90
25554;DHT22;13446;50.926;5.332;2022-09-29T03:58:47;8.10;99.90
25554;DHT22;13446;50.926;5.332;2022-09-29T04:01:12;8.10;99.90
25554;DHT22;13446;50.926;5.332;2022-09-29T04:03:38;8.10;99.90
25554;DHT22;13446;50.926;5.332;2022-09-29T04:06:03;8.10;99.90
25554;DHT22;13446;50.926;5.332;2022-09-29T04:08:29;8.10;99.90
25554;DHT22;13446;50.926;5.332;2022-09-29T04:10:54;8.10;99.90
25554;DHT22;13446;50.926;5.332;2022-09-29T04:13:20;8.10;99.90
25554;DHT22;13446;50.926;5.332;2022-09-29T04:15:48;8.20;99.90
25554;DHT22;13446;50.926;5.332;2022-09-29T04:18:14;8.10;99.90
25554;DHT22;13446;50.926;5.332;2022-09-29T04:20:40;8.00;99.90
25554;DHT22;13446;50.926;5.332;2022-09-29T04:23:06;8.10;99.90
25554;DHT22;13446;50.926;5.332;2022-09-29T04:25:32;8.00;99.90
25554;DHT22;13446;50.926;5.332;2022-09-29T04:27:58;8.00;99.90
25554;DHT22;13446;50.926;5.332;2022-09-29T04:30:24;7.90;99.90
25554;DHT22;13446;50.926;5.332;2022-09-29T04:32:49;7.90;99.90
25554;DHT22;13446;50.926;5.332;2022-09-29T04:35:16;8.00;99.90
25554;DHT22;13446;50.926;5.332;2022-09-29T04:37:42;7.80;99.90
25554;DHT22;13446;50.926;5.332;2022-09-29T04:40:07;7.90;99.90
25554;DHT22;13446;50.926;5.332;2022-09-29T04:42:33;7.90;99.90
25554;DHT22;13446;50.926;5.332;2022-09-29T04:44:59;8.00;99.90
25554;DHT22;13446;50.926;5.332;2022-09-29T04:47:25;8.00;99.90
25554;DHT22;13446;50.926;5.332;2022-09-29T04:49:50;8.00;99.90
25554;DHT22;13446;50.926;5.332;2022-09-29T04:52:16;7.90;99.90
25554;DHT22;13446;50.926;5.332;2022-09-29T04:54:41;8.00;99.90
25554;DHT22;13446;50.926;5.332;2022-09-29T04:57:07;8.00;99.90
25554;DHT22;13446;50.926;5.332;2022-09-29T04:59:34;8.00;99.90
25554;DHT22;13446;50.926;5.332;2022-09-29T05:01:59;8.00;99.90
25554;DHT22;13446;50.926;5.332;2022-09-29T05:04:25;8.00;99.90
25554;DHT22;13446;50.926;5.332;2022-09-29T05:06:50;7.90;99.90
25554;DHT22;13446;50.926;5.332;2022-09-29T05:09:16;7.80;99.90
25554;DHT22;13446;50.926;5.332;2022-09-29T05:11:41;7.80;99.90
25554;DHT22;13446;50.926;5.332;2022-09-29T05:14:07;7.80;99.90
25554;DHT22;13446;50.926;5.332;2022-09-29T05:16:32;7.70;99.90
25554;DHT22;13446;50.926;5.332;2022-09-29T05:18:58;7.80;99.90
25554;DHT22;13446;50.926;5.332;2022-09-29T05:21:23;7.80;99.90
25554;DHT22;13446;50.926;5.332;2022-09-29T05:23:49;7.80;99.90
25554;DHT22;13446;50.926;5.332;2022-09-29T05:26:14;7.80;99.90
25554;DHT22;13446;50.926;5.332;2022-09-29T05:28:44;7.80;99.90
25554;DHT22;13446;50.926;5.332;2022-09-29T05:31:10;7.80;99.90
25554;DHT22;13446;50.926;5.332;2022-09-29T05:33:35;7.80;99.90
25554;DHT22;13446;50.926;5.332;2022-09-29T05:36:04;7.70;99.90
25554;DHT22;13446;50.926;5.332;2022-09-29T05:38:31;7.70;99.90
25554;DHT22;13446;50.926;5.332;2022-09-29T05:40:57;7.80;99.90
25554;DHT22;13446;50.926;5.332;2022-09-29T05:43:23;7.70;99.90
25554;DHT22;13446;50.926;5.332;2022-09-29T05:45:49;7.70;99.90
25554;DHT22;13446;50.926;5.332;2022-09-29T05:48:15;7.70;99.90
25554;DHT22;13446;50.926;5.332;2022-09-29T05:50:41;7.70;99.90
25554;DHT22;13446;50.926;5.332;2022-09-29T05:53:07;7.70;99.90
25554;DHT22;13446;50.926;5.332;2022-09-29T05:55:36;7.70;99.90
25554;DHT22;13446;50.926;5.332;2022-09-29T05:58:03;7.70;99.90
25554;DHT22;13446;50.926;5.332;2022-09-29T06:00:28;7.60;99.90
25554;DHT22;13446;50.926;5.332;2022-09-29T06:02:58;7.50;99.90
25554;DHT22;13446;50.926;5.332;2022-09-29T06:05:24;7.50;99.90
25554;DHT22;13446;50.926;5.332;2022-09-29T06:07:50;7.60;99.90
25554;DHT22;13446;50.926;5.332;2022-09-29T06:10:16;7.70;99.90
25554;DHT22;13446;50.926;5.332;2022-09-29T06:12:41;7.80;99.90
25554;DHT22;13446;50.926;5.332;2022-09-29T06:15:07;7.90;99.90
25554;DHT22;13446;50.926;5.332;2022-09-29T06:17:32;7.90;99.90
25554;DHT22;13446;50.926;5.332;2022-09-29T06:19:59;8.00;99.90
25554;DHT22;13446;50.926;5.332;2022-09-29T06:22:25;8.00;99.90
25554;DHT22;13446;50.926;5.332;2022-09-29T06:24:52;8.10;99.90
25554;DHT22;13446;50.926;5.332;2022-09-29T06:27:17;8.30;99.90
25554;DHT22;13446;50.926;5.332;2022-09-29T06:29:43;8.30;99.90
25554;DHT22;13446;50.926;5.332;2022-09-29T06:32:08;8.30;99.90
25554;DHT22;13446;50.926;5.332;2022-09-29T06:34:35;8.40;99.90
25554;DHT22;13446;50.926;5.332;2022-09-29T06:37:21;8.40;99.90
25554;DHT22;13446;50.926;5.332;2022-09-29T06:40:06;8.50;99.90
25554;DHT22;13446;50.926;5.332;2022-09-29T06:42:34;9.40;99.90
25554;DHT22;13446;50.926;5.332;2022-09-29T06:45:00;10.30;99.90
25554;DHT22;13446;50.926;5.332;2022-09-29T06:47:26;11.20;99.90
25554;DHT22;13446;50.926;5.332;2022-09-29T06:49:52;12.10;99.90
25554;DHT22;13446;50.926;5.332;2022-09-29T06:52:18;13.00;99.90
25554;DHT22;13446;50.926;5.332;2022-09-29T06:54:44;13.80;99.90
25554;DHT22;13446;50.926;5.332;2022-09-29T06:57:09;14.80;99.90
25554;DHT22;13446;50.926;5.332;2022-09-29T06:59:35;15.80;99.90
25554;DHT22;13446;50.926;5.332;2022-09-29T07:02:00;16.80;99.90
25554;DHT22;13446;50.926;5.332;2022-09-29T07:04:26;17.70;99.90
25554;DHT22;13446;50.926;5.332;2022-09-29T07:06:52;18.50;99.90
25554;DHT22;13446;50.926;5.332;2022-09-29T07:09:18;19.20;99.50
25554;DHT22;13446;50.926;5.332;2022-09-29T07:11:44;19.80;96.90
25554;DHT22;13446;50.926;5.332;2022-09-29T07:14:14;20.50;94.80
25554;DHT22;13446;50.926;5.332;2022-09-29T07:16:40;21.20;90.80
25554;DHT22;13446;50.926;5.332;2022-09-29T07:19:06;21.30;88.90
25554;DHT22;13446;50.926;5.332;2022-09-29T07:21:31;21.70;87.50
25554;DHT22;13446;50.926;5.332;2022-09-29T07:23:57;22.00;82.60
25554;DHT22;13446;50.926;5.332;2022-09-29T07:26:23;22.50;80.20
25554;DHT22;13446;50.926;5.332;2022-09-29T07:28:48;23.30;75.70
25554;DHT22;13446;50.926;5.332;2022-09-29T07:31:15;23.70;72.60
25554;DHT22;13446;50.926;5.332;2022-09-29T07:33:41;24.20;69.20
25554;DHT22;13446;50.926;5.332;2022-09-29T07:36:07;24.70;66.70
25554;DHT22;13446;50.926;5.332;2022-09-29T07:38:33;25.10;62.30
25554;DHT22;13446;50.926;5.332;2022-09-29T07:41:02;25.70;59.50
25554;DHT22;13446;50.926;5.332;2022-09-29T07:43:28;26.00;57.90
25554;DHT22;13446;50.926;5.332;2022-09-29T07:45:54;26.60;56.30
25554;DHT22;13446;50.926;5.332;2022-09-29T07:48:19;27.00;53.80
25554;DHT22;13446;50.926;5.332;2022-09-29T07:50:45;27.50;52.60
25554;DHT22;13446;50.926;5.332;2022-09-29T07:53:11;27.90;51.00
25554;DHT22;13446;50.926;5.332;2022-09-29T07:55:37;26.70;51.00
25554;DHT22;13446;50.926;5.332;2022-09-29T07:58:03;27.30;51.30
25554;DHT22;13446;50.926;5.332;2022-09-29T08:00:29;27.80;49.20
25554;DHT22;13446;50.926;5.332;2022-09-29T08:03:02;28.00;48.90
25554;DHT22;13446;50.926;5.332;2022-09-29T08:05:31;28.60;48.30
25554;DHT22;13446;50.926;5.332;2022-09-29T08:08:03;28.90;47.00
25554;DHT22;13446;50.926;5.332;2022-09-29T08:10:32;29.50;46.60
25554;DHT22;13446;50.926;5.332;2022-09-29T08:12:57;29.70;45.60
25554;DHT22;13446;50.926;5.332;2022-09-29T08:15:23;30.10;44.50
25554;DHT22;13446;50.926;5.332;2022-09-29T08:17:52;30.20;43.70
25554;DHT22;13446;50.926;5.332;2022-09-29T08:20:18;30.60;43.50
25554;DHT22;13446;50.926;5.332;2022-09-29T08:22:44;30.90;42.50
25554;DHT22;13446;50.926;5.332;2022-09-29T08:25:10;31.00;41.70
25554;DHT22;13446;50.926;5.332;2022-09-29T08:27:36;31.40;41.70
25554;DHT22;13446;50.926;5.332;2022-09-29T08:30:02;31.70;40.90
25554;DHT22;13446;50.926;5.332;2022-09-29T08:32:27;31.30;40.50
25554;DHT22;13446;50.926;5.332;2022-09-29T08:34:53;31.70;40.50
25554;DHT22;13446;50.926;5.332;2022-09-29T08:37:19;31.80;40.50
25554;DHT22;13446;50.926;5.332;2022-09-29T08:39:45;31.60;40.20
25554;DHT22;13446;50.926;5.332;2022-09-29T08:42:14;31.80;40.50
25554;DHT22;13446;50.926;5.332;2022-09-29T08:44:54;32.50;39.80
25554;DHT22;13446;50.926;5.332;2022-09-29T08:47:27;31.10;39.40
25554;DHT22;13446;50.926;5.332;2022-09-29T08:49:55;30.30;42.50
25554;DHT22;13446;50.926;5.332;2022-09-29T08:52:23;31.80;39.60
25554;DHT22;13446;50.926;5.332;2022-09-29T08:54:50;32.60;38.80
25554;DHT22;13446;50.926;5.332;2022-09-29T08:57:17;33.00;38.00
25554;DHT22;13446;50.926;5.332;2022-09-29T09:00:05;33.40;36.50
25554;DHT22;13446;50.926;5.332;2022-09-29T09:02:44;33.90;35.70
25554;DHT22;13446;50.926;5.332;2022-09-29T09:05:27;34.20;35.80
25554;DHT22;13446;50.926;5.332;2022-09-29T09:10:37;34.00;35.00
25554;DHT22;13446;50.926;5.332;2022-09-29T09:13:16;33.40;35.60
25554;DHT22;13446;50.926;5.332;2022-09-29T09:21:07;33.50;35.70
25554;DHT22;13446;50.926;5.332;2022-09-29T09:26:18;33.20;35.50
25554;DHT22;13446;50.926;5.332;2022-09-29T09:28:57;33.80;35.10
25554;DHT22;13446;50.926;5.332;2022-09-29T09:31:39;33.90;34.70
25554;DHT22;13446;50.926;5.332;2022-09-29T09:34:09;33.80;34.70
25554;DHT22;13446;50.926;5.332;2022-09-29T09:36:46;33.70;34.20
25554;DHT22;13446;50.926;5.332;2022-09-29T09:41:38;34.90;33.50
25554;DHT22;13446;50.926;5.332;2022-09-29T09:49:23;34.80;32.80
25554;DHT22;13446;50.926;5.332;2022-09-29T09:59:37;35.60;32.70
25554;DHT22;13446;50.926;5.332;2022-09-29T10:02:10;35.70;31.40
25554;DHT22;13446;50.926;5.332;2022-09-29T10:04:41;35.90;30.70
25554;DHT22;13446;50.926;5.332;2022-09-29T10:07:06;36.20;30.90
25554;DHT22;13446;50.926;5.332;2022-09-29T10:09:32;35.50;30.90
25554;DHT22;13446;50.926;5.332;2022-09-29T10:11:57;35.30;31.70
25554;DHT22;13446;50.926;5.332;2022-09-29T10:14:25;35.20;30.40
25554;DHT22;13446;50.926;5.332;2022-09-29T10:16:55;34.90;30.40
25554;DHT22;13446;50.926;5.332;2022-09-29T10:19:23;34.80;31.40
25554;DHT22;13446;50.926;5.332;2022-09-29T10:21:48;34.90;31.10
25554;DHT22;13446;50.926;5.332;2022-09-29T10:24:26;35.00;31.40
25554;DHT22;13446;50.926;5.332;2022-09-29T10:26:53;33.00;32.20
25554;DHT22;13446;50.926;5.332;2022-09-29T10:34:42;34.20;32.60
25554;DHT22;13446;50.926;5.332;2022-09-29T10:42:33;35.70;31.60
25554;DHT22;13446;50.926;5.332;2022-09-29T10:45:00;35.30;32.50
25554;DHT22;13446;50.926;5.332;2022-09-29T10:47:28;35.30;31.20
25554;DHT22;13446;50.926;5.332;2022-09-29T10:52:57;35.90;31.80
25554;DHT22;13446;50.926;5.332;2022-09-29T10:55:25;35.90;30.90
25554;DHT22;13446;50.926;5.332;2022-09-29T10:57:54;36.10;30.50
25554;DHT22;13446;50.926;5.332;2022-09-29T11:02:50;35.30;31.40
25554;DHT22;13446;50.926;5.332;2022-09-29T11:05:20;34.80;31.30
25554;DHT22;13446;50.926;5.332;2022-09-29T11:07:48;35.60;30.00
25554;DHT22;13446;50.926;5.332;2022-09-29T11:12:51;36.10;30.80
25554;DHT22;13446;50.926;5.332;2022-09-29T11:15:21;36.00;29.90
25554;DHT22;13446;50.926;5.332;2022-09-29T11:17:48;37.00;30.30
25554;DHT22;13446;50.926;5.332;2022-09-29T11:20:14;37.60;29.10
25554;DHT22;13446;50.926;5.332;2022-09-29T11:43:54;31.30;32.20
25554;DHT22;13446;50.926;5.332;2022-09-29T11:49:17;30.00;35.40
25554;DHT22;13446;50.926;5.332;2022-09-29T11:54:34;28.50;36.90
25554;DHT22;13446;50.926;5.332;2022-09-29T11:57:12;26.90;39.00
25554;DHT22;13446;50.926;5.332;2022-09-29T11:59:47;25.60;41.30
25554;DHT22;13446;50.926;5.332;2022-09-29T12:15:41;31.10;34.00
25554;DHT22;13446;50.926;5.332;2022-09-29T12:18:15;32.20;33.00
25554;DHT22;13446;50.926;5.332;2022-09-29T12:20:42;32.40;31.90
25554;DHT22;13446;50.926;5.332;2022-09-29T12:23:10;31.50;32.80
25554;DHT22;13446;50.926;5.332;2022-09-29T12:25:39;30.50;34.10
25554;DHT22;13446;50.926;5.332;2022-09-29T12:28:12;29.40;34.60
25554;DHT22;13446;50.926;5.332;2022-09-29T12:30:46;28.30;34.90
25554;DHT22;13446;50.926;5.332;2022-09-29T12:33:19;27.30;36.60
25554;DHT22;13446;50.926;5.332;2022-09-29T12:35:49;26.70;37.90
25554;DHT22;13446;50.926;5.332;2022-09-29T12:38:33;28.40;37.50
25554;DHT22;13446;50.926;5.332;2022-09-29T12:41:10;30.00;35.10
25554;DHT22;13446;50.926;5.332;2022-09-29T12:43:44;31.10;35.30
25554;DHT22;13446;50.926;5.332;2022-09-29T12:48:57;30.90;32.60
25554;DHT22;13446;50.926;5.332;2022-09-29T12:51:29;31.30;34.20
25554;DHT22;13446;50.926;5.332;2022-09-29T13:01:55;28.90;36.40
25554;DHT22;13446;50.926;5.332;2022-09-29T13:12:29;29.10;35.00
25554;DHT22;13446;50.926;5.332;2022-09-29T13:15:18;30.40;35.70
25554;DHT22;13446;50.926;5.332;2022-09-29T13:28:39;30.40;33.20
25554;DHT22;13446;50.926;5.332;2022-09-29T13:31:11;30.80;32.80
25554;DHT22;13446;50.926;5.332;2022-09-29T13:33:38;31.30;33.10
25554;DHT22;13446;50.926;5.332;2022-09-29T13:36:04;31.70;33.00
25554;DHT22;13446;50.926;5.332;2022-09-29T13:38:31;31.40;32.20
25554;DHT22;13446;50.926;5.332;2022-09-29T13:41:17;30.30;32.10
25554;DHT22;13446;50.926;5.332;2022-09-29T13:46:26;27.80;35.50
25554;DHT22;13446;50.926;5.332;2022-09-29T13:54:47;25.90;39.30
25554;DHT22;13446;50.926;5.332;2022-09-29T14:00:02;24.90;42.30
25554;DHT22;13446;50.926;5.332;2022-09-29T14:02:33;25.00;42.30
25554;DHT22;13446;50.926;5.332;2022-09-29T14:04:59;24.80;42.90
25554;DHT22;13446;50.926;5.332;2022-09-29T14:10:12;23.80;43.20
25554;DHT22;13446;50.926;5.332;2022-09-29T14:12:39;22.90;44.30
25554;DHT22;13446;50.926;5.332;2022-09-29T14:15:05;22.90;44.40
25554;DHT22;13446;50.926;5.332;2022-09-29T14:17:35;23.10;43.70
25554;DHT22;13446;50.926;5.332;2022-09-29T14:27:46;22.80;44.90
25554;DHT22;13446;50.926;5.332;2022-09-29T14:32:55;22.40;46.90
25554;DHT22;13446;50.926;5.332;2022-09-29T14:37:49;21.90;48.20
25554;DHT22;13446;50.926;5.332;2022-09-29T14:40:17;22.30;47.40
25554;DHT22;13446;50.926;5.332;2022-09-29T14:43:04;22.10;45.60
25554;DHT22;13446;50.926;5.332;2022-09-29T14:45:31;22.10;49.10
25554;DHT22;13446;50.926;5.332;2022-09-29T14:48:56;21.80;48.20
25554;DHT22;13446;50.926;5.332;2022-09-29T14:51:33;21.00;50.80
25554;DHT22;13446;50.926;5.332;2022-09-29T15:04:42;20.70;54.80
25554;DHT22;13446;50.926;5.332;2022-09-29T15:07:19;20.30;57.10
25554;DHT22;13446;50.926;5.332;2022-09-29T15:09:48;19.90;59.00
25554;DHT22;13446;50.926;5.332;2022-09-29T15:12:18;19.60;59.20
25554;DHT22;13446;50.926;5.332;2022-09-29T15:14:44;19.40;60.80
25554;DHT22;13446;50.926;5.332;2022-09-29T15:20:01;19.70;62.60
25554;DHT22;13446;50.926;5.332;2022-09-29T15:25:28;18.80;66.60
25554;DHT22;13446;50.926;5.332;2022-09-29T15:27:57;18.60;68.60
25554;DHT22;13446;50.926;5.332;2022-09-29T15:30:23;18.70;69.70
25554;DHT22;13446;50.926;5.332;2022-09-29T15:32:49;19.00;70.10
25554;DHT22;13446;50.926;5.332;2022-09-29T15:35:22;19.30;68.80
25554;DHT22;13446;50.926;5.332;2022-09-29T15:37:57;19.60;65.20
25554;DHT22;13446;50.926;5.332;2022-09-29T15:40:31;19.70;65.60
25554;DHT22;13446;50.926;5.332;2022-09-29T15:42:59;19.80;65.70
25554;DHT22;13446;50.926;5.332;2022-09-29T15:45:25;19.90;63.70
25554;DHT22;13446;50.926;5.332;2022-09-29T15:48:03;19.50;64.20
25554;DHT22;13446;50.926;5.332;2022-09-29T15:50:30;19.20;67.10
25554;DHT22;13446;50.926;5.332;2022-09-29T15:52:57;19.40;66.70
25554;DHT22;13446;50.926;5.332;2022-09-29T15:55:25;19.60;64.40
25554;DHT22;13446;50.926;5.332;2022-09-29T15:57:51;19.30;64.10
25554;DHT22;13446;50.926;5.332;2022-09-29T16:02:53;19.30;62.30
25554;DHT22;13446;50.926;5.332;2022-09-29T16:05:26;19.30;63.90
25554;DHT22;13446;50.926;5.332;2022-09-29T16:07:55;19.20;62.80
25554;DHT22;13446;50.926;5.332;2022-09-29T16:10:27;19.10;65.30
25554;DHT22;13446;50.926;5.332;2022-09-29T16:12:57;18.90;65.90
25554;DHT22;13446;50.926;5.332;2022-09-29T16:15:28;18.40;67.90
25554;DHT22;13446;50.926;5.332;2022-09-29T16:17:54;18.60;68.30
25554;DHT22;13446;50.926;5.332;2022-09-29T16:20:22;18.70;68.10
25554;DHT22;13446;50.926;5.332;2022-09-29T16:22:49;18.90;67.00
25554;DHT22;13446;50.926;5.332;2022-09-29T16:25:25;19.00;64.80
25554;DHT22;13446;50.926;5.332;2022-09-29T16:27:53;19.10;67.90
25554;DHT22;13446;50.926;5.332;2022-09-29T16:30:21;19.00;70.20
25554;DHT22;13446;50.926;5.332;2022-09-29T16:33:21;19.00;71.90
25554;DHT22;13446;50.926;5.332;2022-09-29T16:35:41;18.90;73.60
25554;DHT22;13446;50.926;5.332;2022-09-29T16:38:16;18.90;75.70
25554;DHT22;13446;50.926;5.332;2022-09-29T16:40:42;18.80;75.90
25554;DHT22;13446;50.926;5.332;2022-09-29T16:43:22;18.70;77.50
25554;DHT22;13446;50.926;5.332;2022-09-29T16:45:49;18.60;79.70
25554;DHT22;13446;50.926;5.332;2022-09-29T16:48:16;18.20;81.90
25554;DHT22;13446;50.926;5.332;2022-09-29T16:50:45;18.20;84.30
25554;DHT22;13446;50.926;5.332;2022-09-29T16:53:22;18.10;86.30
25554;DHT22;13446;50.926;5.332;2022-09-29T16:56:03;18.00;86.30
25554;DHT22;13446;50.926;5.332;2022-09-29T16:58:29;17.90;88.30
25554;DHT22;13446;50.926;5.332;2022-09-29T17:00:55;17.90;89.20
25554;DHT22;13446;50.926;5.332;2022-09-29T17:03:21;17.70;89.80
25554;DHT22;13446;50.926;5.332;2022-09-29T17:05:46;17.70;90.40
25554;DHT22;13446;50.926;5.332;2022-09-29T17:10:40;17.60;90.80
25554;DHT22;13446;50.926;5.332;2022-09-29T17:13:12;17.60;91.80
25554;DHT22;13446;50.926;5.332;2022-09-29T17:15:40;17.50;92.30
25554;DHT22;13446;50.926;5.332;2022-09-29T17:18:08;17.50;92.60
25554;DHT22;13446;50.926;5.332;2022-09-29T17:20:34;17.60;93.20
25554;DHT22;13446;50.926;5.332;2022-09-29T17:23:00;17.30;93.80
25554;DHT22;13446;50.926;5.332;2022-09-29T17:25:25;17.20;94.50
25554;DHT22;13446;50.926;5.332;2022-09-29T17:27:51;17.20;94.90
25554;DHT22;13446;50.926;5.332;2022-09-29T17:30:38;17.10;95.90
25554;DHT22;13446;50.926;5.332;2022-09-29T17:33:04;17.00;96.50
25554;DHT22;13446;50.926;5.332;2022-09-29T17:35:31;16.90;97.30
25554;DHT22;13446;50.926;5.332;2022-09-29T17:38:00;16.90;98.00
25554;DHT22;13446;50.926;5.332;2022-09-29T17:40:28;16.70;99.10
25554;DHT22;13446;50.926;5.332;2022-09-29T17:42:55;16.80;99.10
25554;DHT22;13446;50.926;5.332;2022-09-29T17:45:23;16.80;99.30
25554;DHT22;13446;50.926;5.332;2022-09-29T17:47:50;16.70;99.70
25554;DHT22;13446;50.926;5.332;2022-09-29T17:50:23;16.70;99.90
25554;DHT22;13446;50.926;5.332;2022-09-29T17:52:49;16.60;99.90
25554;DHT22;13446;50.926;5.332;2022-09-29T17:55:15;16.60;99.90
25554;DHT22;13446;50.926;5.332;2022-09-29T17:57:41;16.50;99.90
25554;DHT22;13446;50.926;5.332;2022-09-29T18:00:18;16.40;99.90
25554;DHT22;13446;50.926;5.332;2022-09-29T18:02:45;16.30;99.90
25554;DHT22;13446;50.926;5.332;2022-09-29T18:05:11;16.00;99.90
25554;DHT22;13446;50.926;5.332;2022-09-29T18:07:37;15.80;99.90
25554;DHT22;13446;50.926;5.332;2022-09-29T18:10:08;15.80;99.90
25554;DHT22;13446;50.926;5.332;2022-09-29T18:12:38;15.80;99.90
25554;DHT22;13446;50.926;5.332;2022-09-29T18:15:04;15.70;99.90
25554;DHT22;13446;50.926;5.332;2022-09-29T18:17:30;15.60;99.90
25554;DHT22;13446;50.926;5.332;2022-09-29T18:19:55;15.60;99.90
25554;DHT22;13446;50.926;5.332;2022-09-29T18:22:21;15.60;99.90
25554;DHT22;13446;50.926;5.332;2022-09-29T18:24:49;15.50;99.90
25554;DHT22;13446;50.926;5.332;2022-09-29T18:27:15;15.40;99.90
25554;DHT22;13446;50.926;5.332;2022-09-29T18:29:40;15.30;99.90
25554;DHT22;13446;50.926;5.332;2022-09-29T18:32:08;15.30;99.90
25554;DHT22;13446;50.926;5.332;2022-09-29T18:34:34;15.30;99.90
25554;DHT22;13446;50.926;5.332;2022-09-29T18:37:01;15.20;99.90
25554;DHT22;13446;50.926;5.332;2022-09-29T18:39:26;15.20;99.90
25554;DHT22;13446;50.926;5.332;2022-09-29T18:41:52;15.10;99.90
25554;DHT22;13446;50.926;5.332;2022-09-29T18:44:17;15.00;99.90
25554;DHT22;13446;50.926;5.332;2022-09-29T18:46:45;15.00;99.90
25554;DHT22;13446;50.926;5.332;2022-09-29T18:49:11;15.00;99.90
25554;DHT22;13446;50.926;5.332;2022-09-29T18:51:37;14.90;99.90
25554;DHT22;13446;50.926;5.332;2022-09-29T18:54:03;14.80;99.90
25554;DHT22;13446;50.926;5.332;2022-09-29T18:56:29;14.80;99.90
25554;DHT22;13446;50.926;5.332;2022-09-29T18:58:55;14.80;99.90
25554;DHT22;13446;50.926;5.332;2022-09-29T19:01:22;14.90;99.90
25554;DHT22;13446;50.926;5.332;2022-09-29T19:03:49;14.90;99.90
25554;DHT22;13446;50.926;5.332;2022-09-29T19:06:14;14.90;99.90